Time;durP1;ratioP1;P1;durP2;ratioP2;P2;SDS_P1;SDS_P2;PMS_P1;PMS_P2;Temp;Humidity;BMP_temperature;BMP_pressure;BME280_temperature;BME280_humidity;BME280_pressure;Samples;Min_cycle;Max_cycle;Signal;HPM_P1;HPM_P2
2021/12/23 01:56:13;;;;;;;21.70;12.10;;;-0.40;99.90;;;;;;4874779;29;20060;-62
2021/12/23 01:58:41;;;;;;;20.25;13.32;;;-0.40;99.90;;;;;;4863158;29;20425;-61
2021/12/23 02:01:07;;;;;;;18.57;12.33;;;-0.50;99.90;;;;;;4862971;29;20143;-62
2021/12/23 02:03:33;;;;;;;18.60;12.00;;;-0.50;99.90;;;;;;4880178;29;20387;-61
2021/12/23 02:05:59;;;;;;;22.07;12.70;;;-0.50;99.90;;;;;;4863253;29;20041;-61
2021/12/23 02:08:24;;;;;;;19.80;12.18;;;-0.50;99.90;;;;;;4879621;29;20060;-61
2021/12/23 02:10:53;;;;;;;19.75;12.85;;;-0.50;99.90;;;;;;4862882;29;20486;-61
2021/12/23 02:13:21;;;;;;;18.83;12.07;;;-0.50;99.90;;;;;;4879983;29;20399;-62
2021/12/23 02:15:46;;;;;;;18.43;12.30;;;-0.50;99.90;;;;;;4880235;29;20061;-61
2021/12/23 02:18:12;;;;;;;17.60;11.70;;;-0.50;99.90;;;;;;4879426;29;20044;-61
2021/12/23 02:20:38;;;;;;;23.08;13.15;;;-0.50;99.90;;;;;;4879886;29;20123;-62
2021/12/23 02:23:07;;;;;;;20.90;12.88;;;-0.50;99.90;;;;;;4883214;29;20091;-63
2021/12/23 02:25:32;;;;;;;18.63;12.57;;;-0.50;99.90;;;;;;4881975;29;20064;-61
2021/12/23 02:27:58;;;;;;;19.95;12.23;;;-0.50;99.90;;;;;;4883771;29;20053;-61
2021/12/23 02:30:28;;;;;;;19.90;12.73;;;-0.50;99.90;;;;;;4882968;29;20601;-62
2021/12/23 02:32:55;;;;;;;22.25;13.38;;;-0.50;99.90;;;;;;4882960;29;20061;-62
2021/12/23 02:35:23;;;;;;;20.07;12.80;;;-0.50;99.90;;;;;;4883057;29;20128;-62
2021/12/23 02:37:49;;;;;;;19.20;12.20;;;-0.40;99.90;;;;;;4883650;29;20053;-62
2021/12/23 02:40:29;;;;;;;19.02;12.55;;;-0.40;99.90;;;;;;4882697;29;20045;-62
2021/12/23 02:42:56;;;;;;;19.08;12.45;;;-0.40;99.90;;;;;;4882680;29;20056;-62
2021/12/23 02:45:22;;;;;;;20.40;12.87;;;-0.40;99.90;;;;;;4866232;29;20092;-61
2021/12/23 02:47:48;;;;;;;18.98;12.98;;;-0.40;99.90;;;;;;4883416;29;20041;-62
2021/12/23 02:50:13;;;;;;;18.60;12.52;;;-0.40;99.90;;;;;;4882575;29;20482;-62
2021/12/23 02:52:39;;;;;;;20.80;13.23;;;-0.40;99.90;;;;;;4882562;29;20109;-61
2021/12/23 07:53:58;;;;;;;28.03;18.13;;;0.00;99.90;;;;;;4953967;23;20055;-62
2021/12/23 07:56:25;;;;;;;28.48;18.55;;;0.00;99.90;;;;;;4939102;29;20479;-60
2021/12/23 07:58:51;;;;;;;27.83;18.65;;;-0.10;99.90;;;;;;4937274;29;20075;-60
2021/12/23 08:01:18;;;;;;;28.65;18.48;;;-0.10;99.90;;;;;;4938353;29;20488;-60
2021/12/23 08:03:44;;;;;;;28.38;18.58;;;-0.10;99.90;;;;;;4938397;29;20125;-61
2021/12/23 08:06:10;;;;;;;28.67;18.52;;;-0.10;99.90;;;;;;4929268;29;20115;-59
2021/12/23 08:08:36;;;;;;;30.77;18.83;;;-0.10;99.90;;;;;;4927843;29;20039;-60
2021/12/23 08:11:02;;;;;;;27.38;18.67;;;-0.10;99.90;;;;;;4926594;29;20138;-62
2021/12/23 08:13:29;;;;;;;32.88;19.67;;;-0.10;99.90;;;;;;4926442;29;20056;-61
2021/12/23 08:15:55;;;;;;;31.58;19.13;;;-0.10;99.90;;;;;;4934402;29;20043;-61
2021/12/23 08:18:21;;;;;;;32.70;20.42;;;-0.10;99.90;;;;;;4927781;29;20055;-61
2021/12/23 08:20:47;;;;;;;30.30;20.42;;;-0.10;99.90;;;;;;4931875;29;20104;-61
2021/12/23 08:23:12;;;;;;;32.28;20.20;;;-0.10;99.90;;;;;;4926627;29;20428;-60
2021/12/23 08:25:38;;;;;;;33.90;22.50;;;-0.10;99.90;;;;;;4928471;29;20747;-60
2021/12/23 08:28:04;;;;;;;38.47;23.73;;;-0.10;99.90;;;;;;4926110;29;20052;-61
2021/12/23 08:30:30;;;;;;;36.78;23.15;;;-0.10;99.90;;;;;;4928172;29;20047;-59
2021/12/23 08:32:56;;;;;;;36.60;23.90;;;-0.10;99.90;;;;;;4928324;29;20131;-59
2021/12/23 08:35:21;;;;;;;38.53;23.90;;;-0.10;99.90;;;;;;4925807;29;20054;-60
2021/12/23 08:37:49;;;;;;;39.30;25.30;;;-0.10;99.90;;;;;;4934562;29;20058;-61
2021/12/23 08:40:20;;;;;;;48.13;33.42;;;-0.10;99.90;;;;;;4937179;29;20039;-61
2021/12/23 08:42:47;;;;;;;39.43;23.73;;;-0.10;99.90;;;;;;4937720;29;20052;-63
2021/12/23 08:45:13;;;;;;;41.08;25.83;;;-0.10;99.90;;;;;;4937130;29;20043;-61
2021/12/23 08:47:39;;;;;;;40.15;24.52;;;-0.10;99.90;;;;;;4936791;29;20125;-62
2021/12/23 08:50:07;;;;;;;42.28;24.45;;;-0.10;99.90;;;;;;4936081;29;20459;-61
2021/12/23 08:52:34;;;;;;;38.97;24.75;;;-0.10;99.90;;;;;;4929501;29;20055;-62
2021/12/23 08:54:59;;;;;;;42.87;26.10;;;-0.10;99.90;;;;;;4925754;29;20110;-61
2021/12/23 08:57:25;;;;;;;41.78;25.60;;;-0.10;99.90;;;;;;4925206;29;20051;-60
2021/12/23 08:59:51;;;;;;;40.78;24.90;;;-0.10;99.90;;;;;;4928384;29;20070;-62
2021/12/23 09:02:17;;;;;;;43.13;26.73;;;0.00;99.90;;;;;;4935990;29;20048;-61
2021/12/23 09:04:42;;;;;;;45.03;26.02;;;-0.10;99.90;;;;;;4925359;29;20040;-61
2021/12/23 09:07:19;;;;;;;45.33;26.75;;;0.00;99.90;;;;;;4930936;29;20054;-63
2021/12/23 09:09:50;;;;;;;46.03;26.52;;;-0.10;99.90;;;;;;4920192;29;20126;-62
2021/12/23 09:12:18;;;;;;;50.92;27.75;;;-0.10;99.90;;;;;;4918354;29;20135;-60
2021/12/23 09:14:43;;;;;;;52.73;28.63;;;-0.10;99.90;;;;;;4916771;29;20126;-61
2021/12/23 09:17:09;;;;;;;52.40;29.00;;;-0.10;99.90;;;;;;4919056;29;20127;-60
2021/12/23 09:19:35;;;;;;;52.03;29.35;;;-0.20;99.90;;;;;;4928226;29;20036;-61
2021/12/23 09:22:01;;;;;;;56.15;30.48;;;-0.10;99.90;;;;;;4929548;29;20040;-60
2021/12/23 09:24:27;;;;;;;59.10;30.48;;;-0.10;99.90;;;;;;4917562;29;20059;-60
2021/12/23 09:27:12;;;;;;;60.30;33.17;;;-0.10;99.90;;;;;;4916663;29;20087;-61
2021/12/23 09:34:56;;;;;;;64.00;33.17;;;-0.10;99.90;;;;;;4931823;29;20070;-61
2021/12/23 09:37:26;;;;;;;60.80;32.78;;;-0.10;99.90;;;;;;4936425;29;20048;-61
2021/12/23 09:39:54;;;;;;;71.85;34.97;;;-0.10;99.90;;;;;;4935174;29;20130;-60
2021/12/23 09:42:32;;;;;;;66.45;34.97;;;-0.10;99.90;;;;;;4935175;29;20090;-61
2021/12/23 09:45:01;;;;;;;;;;;0.00;99.90;;;;;;4937587;29;20070;-61
2021/12/23 09:47:28;;;;;;;75.68;35.83;;;0.00;99.90;;;;;;4935353;29;20366;-61
2021/12/23 09:49:59;;;;;;;74.95;35.45;;;0.00;99.90;;;;;;4935409;29;20099;-61
2021/12/23 09:52:30;;;;;;;83.10;37.80;;;0.00;99.90;;;;;;4936129;29;20091;-61
2021/12/23 09:54:57;;;;;;;77.00;36.55;;;0.00;99.90;;;;;;4936351;29;20063;-61
2021/12/23 09:57:23;;;;;;;80.97;37.55;;;0.00;99.90;;;;;;4935502;29;20370;-61
2021/12/23 09:59:49;;;;;;;88.85;40.60;;;0.00;99.90;;;;;;4936171;29;20476;-60
